Terminal Aerodrome Forecast
Issued by NWS

Current Version | Previous Version | Graphics & Text | Print | Product List | Glossary On
Versions: 1 2 3 4 5 6 7 8 9 10 11 12 13 14 15 16 17 18 19 20 21 22 23 24 25 26 27 28
000
FTUS41 KILN 151500 AAA
TAFLUK
TAF AMD
KLUK 151500Z 1515/1612 20006KT P6SM BKN250
     FM152000 21008KT P6SM SCT040 BKN150
     FM160100 24006KT P6SM OVC050
      TEMPO 1602/1605 30005KT -SHRA BKN030
     FM160500 36006KT P6SM BKN030
     FM160900 02004KT 4SM BR SCT008 OVC015
      TEMPO 1610/1612 2SM BR BKN008=

USA.gov is the U.S. government's official web portal to all federal, state and local government web resources and services.